| time (UTC) | temp C | wind direction | speed KPH | gust KPH | rain 1hr cm | rain 24hr cm | rain mn cm | humidity % | barometer mb |
| 20260906173022 | 25 | 192 | 0.0 | 4.8 | 0.00 | 0.00 | 0.00 | 77 | 1019.0 |
| 20260906170952 | 25 | 171 | 0.0 | 9.7 | 0.00 | 0.00 | 0.00 | 79 | 1019.1 |
| 20260906164922 | 24 | 199 | 0.0 | 3.2 | 0.00 | 0.00 | 0.00 | 80 | 1019.3 |
| 20260906162852 | 24 | 171 | 1.6 | 12.9 | 0.00 | 0.00 | 0.00 | 82 | 1019.6 |
| 20260906161243 | 22 | 187 | 4.8 | 16.1 | 0.00 | 0.00 | 0.00 | 88 | 1019.7 |
| 20260906161210 | 22 | 187 | 4.8 | 16.1 | 0.00 | 0.00 | 0.00 | 88 | 1019.7 |
| 20260906160822 | 23 | 182 | 1.6 | 16.1 | 0.00 | 0.00 | 0.00 | 84 | 1019.4 |
| 20260906154752 | 22 | 188 | 3.2 | 14.5 | 0.00 | 0.00 | 0.00 | 86 | 1019.4 |
| 20260906152722 | 22 | 187 | 4.8 | 16.1 | 0.00 | 0.00 | 0.00 | 88 | 1019.7 |
| 20260906150652 | 22 | 198 | 0.0 | 4.8 | 0.00 | 0.00 | 0.00 | 90 | 1019.8 |
| 20260906144932 | 21 | 203 | 0.0 | 9.7 | 0.00 | 0.00 | 0.00 | 93 | 1019.4 |
| 20260906144653 | 21 | 203 | 0.0 | 9.7 | 0.00 | 0.00 | 0.00 | 93 | 1019.4 |
| 20260906144622 | 21 | 203 | 0.0 | 9.7 | 0.00 | 0.00 | 0.00 | 93 | 1019.4 |
| 20260906142552 | 21 | 0 | 0.0 | 0.0 | 0.00 | 0.00 | 0.00 | 94 | 1019.6 |
| 20260906141408 | 20 | 175 | 0.0 | 4.8 | 0.00 | 0.00 | 0.00 | 97 | 1019.4 |
| 20260906140729 | 20 | 175 | 0.0 | 4.8 | 0.00 | 0.00 | 0.00 | 97 | 1019.4 |
| 20260906140559 | 20 | 175 | 0.0 | 4.8 | 0.00 | 0.00 | 0.00 | 97 | 1019.4 |
| 20260906140522 | 20 | 175 | 0.0 | 4.8 | 0.00 | 0.00 | 0.00 | 97 | 1019.4 |
| 20260906134452 | 20 | 195 | 0.0 | 6.4 | 0.00 | 0.00 | 0.00 | 99 | 1019.4 |
| 20260906132452 | 20 | 214 | 0.0 | 3.2 | 0.00 | 0.00 | 0.00 | 99 | 1019.4 |
| 20260906130422 | 20 | 0 | 0.0 | 0.0 | 0.00 | 0.00 | 0.00 | 99 | 1019.2 |
| 20260906124422 | 19 | 0 | 0.0 | 0.0 | 0.00 | 0.00 | 0.00 | 99 | 1019.1 |
| 20260906122352 | 18 | 0 | 0.0 | 0.0 | 0.00 | 0.00 | 0.00 | 99 | 1018.9 |
| 20260906120322 | 18 | 0 | 0.0 | 0.0 | 0.00 | 0.00 | 0.00 | 99 | 1018.8 |
| 20260906114252 | 18 | 0 | 0.0 | 0.0 | 0.00 | 0.00 | 0.00 | 99 | 1018.7 |
| 20260906112222 | 18 | 0 | 0.0 | 0.0 | 0.00 | 0.00 | 0.00 | 99 | 1018.8 |
| 20260906110152 | 18 | 0 | 0.0 | 0.0 | 0.00 | 0.00 | 0.00 | 99 | 1018.3 |
| 20260906104122 | 19 | 0 | 0.0 | 0.0 | 0.00 | 0.00 | 0.00 | 99 | 1018.3 |
| 20260906102052 | 19 | 0 | 0.0 | 0.0 | 0.00 | 0.00 | 0.00 | 99 | 1018.2 |
| 20260906100022 | 20 | 0 | 0.0 | 0.0 | 0.00 | 0.00 | 0.00 | 99 | 1017.9 |
| 20260906093952 | 20 | 0 | 0.0 | 0.0 | 0.00 | 0.00 | 0.00 | 99 | 1017.6 |
| 20260906091922 | 20 | 0 | 0.0 | 0.0 | 0.00 | 0.00 | 0.00 | 99 | 1017.3 |
| 20260906085852 | 20 | 0 | 0.0 | 0.0 | 0.00 | 0.00 | 0.00 | 98 | 1017.4 |
| 20260906083822 | 20 | 0 | 0.0 | 0.0 | 0.00 | 0.00 | 0.00 | 98 | 1017.4 |
| 20260906083139 | 20 | 0 | 0.0 | 0.0 | 0.00 | 0.00 | 0.00 | 98 | 1017.5 |
| 20260906083103 | 20 | 0 | 0.0 | 0.0 | 0.00 | 0.00 | 0.00 | 98 | 1017.5 |
| 20260906081823 | 20 | 0 | 0.0 | 0.0 | 0.00 | 0.00 | 0.00 | 98 | 1017.3 |
| 20260906081752 | 20 | 0 | 0.0 | 0.0 | 0.00 | 0.00 | 0.00 | 98 | 1017.3 |
| 20260906075752 | 20 | 0 | 0.0 | 0.0 | 0.00 | 0.00 | 0.00 | 98 | 1017.5 |
| 20260906073824 | 20 | 0 | 0.0 | 0.0 | 0.00 | 0.00 | 0.00 | 98 | 1017.7 |
| 20260906073751 | 20 | 0 | 0.0 | 0.0 | 0.00 | 0.00 | 0.00 | 98 | 1017.7 |
| 20260906071811 | 20 | 0 | 0.0 | 0.0 | 0.00 | 0.00 | 0.00 | 97 | 1017.6 |
| 20260906071721 | 20 | 0 | 0.0 | 0.0 | 0.00 | 0.00 | 0.00 | 97 | 1017.6 |
| 20260906065725 | 20 | 0 | 0.0 | 0.0 | 0.00 | 0.00 | 0.00 | 97 | 1017.7 |
| 20260906065651 | 20 | 0 | 0.0 | 0.0 | 0.00 | 0.00 | 0.00 | 97 | 1017.7 |
| 20260906063800 | 20 | 0 | 0.0 | 0.0 | 0.00 | 0.00 | 0.00 | 96 | 1017.7 |
| 20260906063722 | 20 | 0 | 0.0 | 0.0 | 0.00 | 0.00 | 0.00 | 96 | 1017.7 |
| 20260906063651 | 20 | 0 | 0.0 | 0.0 | 0.00 | 0.00 | 0.00 | 96 | 1017.7 |
| 20260906061621 | 21 | 0 | 0.0 | 0.0 | 0.00 | 0.00 | 0.00 | 95 | 1017.9 |
| 20260906055658 | 21 | 0 | 0.0 | 0.0 | 0.00 | 0.00 | 0.00 | 94 | 1017.8 |
| 20260906055551 | 21 | 0 | 0.0 | 0.0 | 0.00 | 0.00 | 0.00 | 94 | 1017.8 |
| 20260906053521 | 21 | 0 | 0.0 | 0.0 | 0.00 | 0.00 | 0.00 | 92 | 1017.7 |
| 20260906051451 | 21 | 0 | 0.0 | 0.0 | 0.00 | 0.00 | 0.00 | 92 | 1017.8 |
| 20260906045421 | 21 | 0 | 0.0 | 0.0 | 0.00 | 0.00 | 0.00 | 93 | 1018.0 |
| 20260906043351 | 21 | 0 | 0.0 | 0.0 | 0.00 | 0.00 | 0.00 | 93 | 1018.0 |
| 20260906041321 | 21 | 0 | 0.0 | 0.0 | 0.00 | 0.00 | 0.00 | 93 | 1018.0 |
| 20260906035251 | 21 | 0 | 0.0 | 0.0 | 0.00 | 0.00 | 0.00 | 92 | 1018.1 |
| 20260906033221 | 21 | 0 | 0.0 | 0.0 | 0.00 | 0.00 | 0.00 | 91 | 1017.9 |
| 20260906031151 | 22 | 0 | 0.0 | 0.0 | 0.00 | 0.00 | 0.00 | 89 | 1018.1 |
| 20260906025121 | 22 | 0 | 0.0 | 0.0 | 0.00 | 0.00 | 0.00 | 88 | 1018.2 |
| 20260906023051 | 22 | 0 | 0.0 | 0.0 | 0.00 | 0.00 | 0.00 | 87 | 1017.8 |
| 20260906021021 | 22 | 0 | 0.0 | 0.0 | 0.00 | 0.00 | 0.00 | 86 | 1017.4 |
| 20260906014951 | 23 | 0 | 0.0 | 0.0 | 0.00 | 0.00 | 0.00 | 84 | 1016.7 |
| 20260906012951 | 24 | 0 | 0.0 | 0.0 | 0.00 | 0.00 | 0.00 | 82 | 1016.4 |
| 20260906010921 | 24 | 0 | 0.0 | 0.0 | 0.00 | 0.00 | 0.00 | 80 | 1016.1 |
| 20260906004921 | 25 | 0 | 0.0 | 0.0 | 0.00 | 0.00 | 0.00 | 78 | 1015.3 |
| 20260906002921 | 25 | 0 | 0.0 | 0.0 | 0.00 | 0.00 | 0.00 | 75 | 1015.3 |
| 20260906000851 | 26 | 0 | 0.0 | 0.0 | 0.00 | 0.00 | 0.00 | 74 | 1015.6 |
| 20260905234851 | 27 | 0 | 0.0 | 0.0 | 0.00 | 0.00 | 0.00 | 72 | 1015.5 |
| 20260905232821 | 27 | 50 | 1.6 | 11.3 | 0.00 | 0.00 | 0.00 | 71 | 1015.2 |
| 20260905230751 | 28 | 46 | 1.6 | 9.7 | 0.00 | 0.00 | 0.00 | 69 | 1014.8 |
| 20260905224751 | 28 | 69 | 0.0 | 4.8 | 0.00 | 0.00 | 0.00 | 65 | 1015.1 |
| 20260905222750 | 28 | 41 | 3.2 | 12.9 | 0.00 | 0.00 | 0.00 | 67 | 1015.1 |
| 20260905220720 | 28 | 54 | 3.2 | 14.5 | 0.00 | 0.00 | 0.00 | 67 | 1015.1 |
| 20260905214650 | 28 | 53 | 1.6 | 11.3 | 0.00 | 0.00 | 0.00 | 69 | 1014.8 |
| 20260905212620 | 28 | 43 | 4.8 | 14.5 | 0.00 | 0.00 | 0.00 | 69 | 1015.3 |
| 20260905210620 | 28 | 39 | 1.6 | 9.7 | 0.00 | 0.00 | 0.00 | 67 | 1016.0 |
| 20260905204620 | 28 | 84 | 0.0 | 4.8 | 0.00 | 0.00 | 0.00 | 69 | 1016.3 |
| 20260905202620 | 28 | 29 | 1.6 | 6.4 | 0.00 | 0.00 | 0.00 | 72 | 1016.7 |
| 20260905200620 | 27 | 1 | 1.6 | 6.4 | 0.00 | 0.00 | 0.00 | 72 | 1017.0 |
| 20260905194550 | 26 | 48 | 3.2 | 9.7 | 0.00 | 0.00 | 0.00 | 76 | 1017.0 |
| 20260905192520 | 27 | 48 | 0.0 | 3.2 | 0.00 | 0.00 | 0.00 | 76 | 1017.2 |
| 20260905190520 | 27 | 34 | 1.6 | 9.7 | 0.00 | 0.00 | 0.00 | 76 | 1017.2 |
| 20260905184450 | 26 | 311 | 0.0 | 1.6 | 0.00 | 0.00 | 0.00 | 76 | 1017.3 |
| 20260905182420 | 26 | 283 | 1.6 | 4.8 | 0.00 | 0.00 | 0.00 | 79 | 1017.3 |
| 20260905180350 | 25 | 194 | 1.6 | 11.3 | 0.00 | 0.00 | 0.00 | 82 | 1017.6 |
| 20260905174320 | 24 | 0 | 0.0 | 0.0 | 0.00 | 0.00 | 0.00 | 84 | 1017.5 |